createdAt,value
2016-10-26T00:02:11.351Z,99.99
2016-10-26T00:07:07.955Z,99.99
2016-10-26T00:12:04.426Z,99.99
2016-10-26T00:17:01.077Z,99.99
2016-10-26T00:21:57.420Z,99.99
2016-10-26T00:26:53.922Z,99.99
2016-10-26T00:31:50.499Z,99.99
2016-10-26T00:36:46.915Z,99.99
2016-10-26T00:41:43.523Z,99.99
2016-10-26T00:46:40.042Z,99.99
2016-10-26T00:51:36.490Z,99.99
2016-10-26T00:56:33.463Z,99.99
2016-10-26T01:01:30.049Z,99.99
2016-10-26T01:06:26.543Z,99.99
2016-10-26T01:11:22.875Z,99.99
2016-10-26T01:16:19.368Z,99.99
2016-10-26T01:21:15.883Z,99.99
2016-10-26T01:26:12.408Z,99.99
2016-10-26T01:31:08.666Z,99.99
2016-10-26T01:36:07.689Z,99.99
2016-10-26T01:41:03.309Z,99.99
2016-10-26T01:46:02.164Z,99.99
2016-10-26T01:50:58.282Z,99.99
2016-10-26T01:55:54.682Z,99.99
2016-10-26T02:00:51.219Z,99.99
2016-10-26T02:05:47.692Z,99.99
2016-10-26T02:10:44.144Z,99.99
2016-10-26T02:15:40.671Z,99.99
2016-10-26T02:20:37.160Z,99.99
2016-10-26T02:25:33.766Z,99.99
2016-10-26T02:30:31.252Z,99.99
2016-10-26T02:35:27.427Z,99.99
2016-10-26T02:40:24.248Z,99.99
2016-10-26T02:45:20.933Z,99.99
2016-10-26T02:50:17.387Z,99.99
2016-10-26T02:55:14.445Z,99.99
2016-10-26T03:00:11.018Z,99.99
2016-10-26T03:05:08.155Z,99.99
2016-10-26T03:10:04.545Z,99.99
2016-10-26T03:15:01.095Z,99.99
2016-10-26T03:19:57.444Z,99.99
2016-10-26T03:24:55.510Z,99.99
2016-10-26T03:29:51.830Z,99.99
2016-10-26T03:34:49.038Z,99.99
2016-10-26T03:39:45.418Z,99.99
2016-10-26T03:44:41.958Z,99.99
2016-10-26T03:49:38.396Z,99.99
2016-10-26T03:54:34.416Z,99.99
2016-10-26T03:59:31.635Z,99.99
2016-10-26T04:04:28.406Z,99.99
2016-10-26T04:09:24.877Z,99.99
2016-10-26T04:14:21.547Z,99.99
2016-10-26T04:19:18.218Z,99.99
2016-10-26T04:24:14.861Z,99.99
2016-10-26T04:29:11.517Z,99.99
2016-10-26T04:34:08.375Z,99.99
2016-10-26T04:39:04.775Z,99.99
2016-10-26T04:44:01.188Z,99.99
2016-10-26T04:48:57.665Z,99.99
2016-10-26T04:53:54.005Z,99.99
2016-10-26T04:58:50.821Z,99.99
2016-10-26T05:03:47.337Z,99.99
2016-10-26T05:08:43.906Z,99.99
2016-10-26T05:13:40.269Z,99.99
2016-10-26T05:18:37.219Z,99.99
2016-10-26T05:23:34.402Z,99.99
2016-10-26T05:28:31.335Z,99.99
2016-10-26T05:33:28.118Z,99.99
2016-10-26T05:38:24.978Z,99.97
2016-10-26T05:43:21.538Z,99.99
2016-10-26T05:48:18.005Z,99.99
2016-10-26T05:53:15.641Z,99.99
2016-10-26T05:58:11.845Z,99.99
2016-10-26T06:03:08.426Z,99.99
2016-10-26T06:08:04.640Z,99.99
2016-10-26T06:13:01.269Z,99.99
2016-10-26T06:17:58.102Z,99.99
2016-10-26T06:22:54.780Z,99.99
2016-10-26T06:27:51.320Z,99.99
2016-10-26T06:32:47.903Z,99.99
2016-10-26T06:37:44.492Z,99.99
2016-10-26T06:42:41.257Z,99.99
2016-10-26T06:47:37.817Z,99.99
2016-10-26T06:52:34.451Z,99.99
2016-10-26T06:57:30.914Z,99.99
2016-10-26T07:02:27.262Z,99.99
2016-10-26T07:07:23.819Z,99.99
2016-10-26T07:12:20.331Z,99.99
2016-10-26T07:17:17.020Z,99.99
2016-10-26T07:22:13.503Z,99.99
2016-10-26T07:27:10.278Z,99.99
2016-10-26T07:32:06.736Z,99.99
2016-10-26T07:37:03.341Z,99.99
2016-10-26T07:42:01.555Z,99.99
2016-10-26T07:46:58.052Z,99.99
2016-10-26T07:51:54.736Z,99.99
2016-10-26T07:56:51.266Z,99.99
2016-10-26T08:01:47.712Z,99.99
2016-10-26T08:06:44.218Z,99.99
2016-10-26T08:11:41.006Z,99.99
2016-10-26T08:16:37.865Z,99.55
2016-10-26T08:21:34.800Z,99.74
2016-10-26T08:26:31.888Z,99.65
2016-10-26T08:31:28.411Z,99.08
2016-10-26T08:36:24.987Z,99.74
2016-10-26T08:41:21.443Z,99.27
2016-10-26T08:46:18.055Z,99.36
2016-10-26T08:51:14.384Z,98.74
2016-10-26T08:56:11.195Z,96.84
2016-10-26T09:01:07.753Z,97.70
2016-10-26T09:06:04.065Z,97.89
2016-10-26T09:11:01.249Z,97.51
2016-10-26T09:15:58.092Z,95.89
2016-10-26T09:20:54.874Z,94.46
2016-10-26T09:25:51.979Z,95.70
2016-10-26T09:30:48.468Z,95.46
2016-10-26T09:35:45.326Z,93.17
2016-10-26T09:40:41.678Z,94.51
2016-10-26T09:45:37.971Z,93.84
2016-10-26T09:50:34.610Z,92.41
2016-10-26T09:55:31.201Z,91.94
2016-10-26T10:00:27.682Z,92.69
2016-10-26T10:05:24.055Z,92.69
2016-10-26T10:10:21.288Z,91.46
2016-10-26T10:15:17.666Z,92.13
2016-10-26T10:20:14.326Z,91.08
2016-10-26T10:25:11.344Z,92.03
2016-10-26T10:30:07.952Z,91.55
2016-10-26T10:35:05.005Z,90.60
2016-10-26T10:40:01.926Z,89.89
2016-10-26T10:44:58.729Z,82.97
2016-10-26T10:49:55.478Z,81.63
2016-10-26T10:54:52.259Z,85.16
2016-10-26T10:59:49.079Z,85.06
2016-10-26T11:04:45.685Z,85.45
2016-10-26T11:09:42.377Z,83.25
2016-10-26T11:14:41.216Z,84.01
2016-10-26T11:19:37.329Z,84.88
2016-10-26T11:24:33.549Z,85.45
2016-10-26T11:29:30.318Z,86.36
2016-10-26T11:34:27.223Z,84.11
2016-10-26T11:39:24.207Z,81.63
2016-10-26T11:44:21.582Z,81.30
2016-10-26T11:49:17.987Z,81.82
2016-10-26T11:54:15.757Z,82.11
2016-10-26T11:59:12.538Z,80.49
2016-10-26T12:04:08.883Z,79.82
2016-10-26T12:09:05.620Z,80.49
2016-10-26T12:14:04.495Z,80.49
2016-10-26T12:19:00.565Z,81.21
2016-10-26T12:23:56.837Z,83.31
2016-10-26T12:28:53.194Z,84.16
2016-10-26T12:33:49.911Z,85.31
2016-10-26T12:38:46.404Z,86.07
2016-10-26T12:43:43.092Z,86.74
2016-10-26T12:53:42.497Z,82.63
2016-10-26T12:58:38.892Z,81.67
2016-10-26T13:08:40.359Z,83.44
2016-10-26T13:13:37.084Z,83.92
2016-10-26T13:23:33.808Z,83.92
2016-10-26T13:28:30.634Z,83.83
2016-10-26T13:33:27.826Z,83.25
2016-10-26T13:38:24.517Z,84.01
2016-10-26T13:43:21.183Z,82.59
2016-10-26T13:48:18.191Z,82.11
2016-10-26T13:53:14.766Z,82.20
2016-10-26T13:58:11.324Z,82.30
2016-10-26T14:03:10.420Z,82.68
2016-10-26T14:08:06.205Z,82.30
2016-10-26T14:13:03.271Z,83.92
2016-10-26T14:17:59.791Z,82.87
2016-10-26T14:22:57.513Z,84.01
2016-10-26T14:27:53.589Z,84.83
2016-10-26T14:32:50.998Z,86.36
2016-10-26T14:37:47.728Z,85.31
2016-10-26T14:42:44.049Z,85.41
2016-10-26T14:47:40.509Z,85.50
2016-10-26T14:52:36.808Z,86.98
2016-10-26T14:57:33.208Z,88.31
2016-10-26T15:02:30.060Z,89.03
2016-10-26T15:07:28.716Z,89.89
2016-10-26T15:12:24.524Z,90.36
2016-10-26T15:17:20.502Z,90.84
2016-10-26T15:22:16.976Z,90.65
2016-10-26T15:27:13.548Z,90.27
2016-10-26T15:32:10.127Z,91.31
2016-10-26T15:37:06.482Z,91.46
2016-10-26T15:42:03.028Z,91.17
2016-10-26T15:46:59.904Z,91.37
2016-10-26T15:51:56.154Z,91.37
2016-10-26T15:56:52.414Z,90.89
2016-10-26T16:01:49.016Z,90.13
2016-10-26T16:06:44.951Z,90.89
2016-10-26T16:11:41.435Z,90.89
2016-10-26T16:16:37.875Z,91.17
2016-10-26T16:21:33.955Z,91.65
2016-10-26T16:26:30.254Z,91.94
2016-10-26T16:31:26.890Z,91.94
2016-10-26T16:36:23.454Z,92.22
2016-10-26T16:41:20.499Z,91.75
2016-10-26T16:46:16.708Z,92.32
2016-10-26T16:51:13.400Z,92.13
2016-10-26T16:56:10.542Z,92.99
2016-10-26T17:01:07.063Z,92.46
2016-10-26T17:06:03.422Z,92.75
2016-10-26T17:11:00.156Z,92.51
2016-10-26T17:15:56.680Z,92.03
2016-10-26T17:20:53.204Z,92.56
2016-10-26T17:25:49.681Z,92.65
2016-10-26T17:30:46.262Z,93.32
2016-10-26T17:35:42.900Z,94.18
2016-10-26T17:40:39.505Z,93.41
2016-10-26T17:45:36.143Z,93.41
2016-10-26T17:50:32.640Z,93.79
2016-10-26T17:55:29.124Z,93.70
2016-10-26T18:00:25.767Z,93.79
2016-10-26T18:05:22.736Z,94.18
2016-10-26T18:10:18.718Z,94.18
2016-10-26T18:15:15.291Z,94.46
2016-10-26T18:20:11.341Z,94.65
2016-10-26T18:25:08.137Z,94.70
2016-10-26T18:30:05.872Z,95.12
2016-10-26T18:35:02.466Z,94.93
2016-10-26T18:39:58.940Z,94.37
2016-10-26T18:44:55.423Z,94.56
2016-10-26T18:49:51.882Z,94.18
2016-10-26T18:54:48.319Z,94.56
2016-10-26T18:59:44.945Z,95.46
2016-10-26T19:04:41.298Z,95.65
2016-10-26T19:09:37.954Z,95.75
2016-10-26T19:14:35.817Z,95.65
2016-10-26T19:19:31.703Z,96.22
2016-10-26T19:24:28.655Z,95.94
2016-10-26T19:29:24.983Z,96.12
2016-10-26T19:34:21.501Z,95.70
2016-10-26T19:39:18.161Z,95.03
2016-10-26T19:44:14.713Z,95.03
2016-10-26T19:49:11.404Z,94.93
2016-10-26T19:54:08.006Z,94.37
2016-10-26T19:59:05.835Z,94.74
2016-10-26T20:04:02.501Z,94.27
2016-10-26T20:08:59.218Z,94.60
2016-10-26T20:18:55.556Z,93.84
2016-10-26T20:23:52.119Z,93.65
2016-10-26T20:28:48.624Z,93.46
2016-10-26T20:33:44.855Z,93.65
2016-10-26T20:38:42.030Z,93.74
2016-10-26T20:43:38.496Z,93.84
2016-10-26T20:48:35.535Z,94.03
2016-10-26T20:53:33.052Z,93.84
2016-10-26T20:58:30.008Z,94.22
2016-10-26T21:03:26.148Z,94.89
2016-10-26T21:08:22.771Z,94.98
2016-10-26T21:13:19.425Z,94.51
2016-10-26T21:18:15.772Z,94.89
2016-10-26T21:23:12.071Z,94.98
2016-10-26T21:28:08.739Z,94.98
2016-10-26T21:33:05.547Z,95.08
2016-10-26T21:38:02.356Z,95.17
2016-10-26T21:42:58.720Z,95.60
2016-10-26T21:47:55.190Z,95.98
2016-10-26T21:52:51.824Z,96.65
2016-10-26T21:57:48.419Z,97.03
2016-10-26T22:02:46.001Z,97.22
2016-10-26T22:07:42.275Z,97.50
2016-10-26T22:12:38.514Z,98.22
2016-10-26T22:17:35.163Z,98.93
2016-10-26T22:22:31.565Z,98.36
2016-10-26T22:27:28.201Z,98.69
2016-10-26T22:32:24.680Z,99.36
2016-10-26T22:37:21.098Z,99.84
2016-10-26T22:42:17.464Z,99.36
2016-10-26T22:47:14.560Z,99.99
2016-10-26T22:52:11.675Z,99.99
2016-10-26T22:57:08.225Z,99.50
2016-10-26T23:02:05.045Z,99.69
2016-10-26T23:07:01.529Z,98.93
2016-10-26T23:11:58.610Z,98.93
2016-10-26T23:16:55.144Z,99.02
2016-10-26T23:21:52.286Z,98.83
2016-10-26T23:26:49.166Z,98.46
2016-10-26T23:31:45.568Z,98.93
2016-10-26T23:36:42.101Z,98.83
2016-10-26T23:41:39.622Z,99.79
2016-10-26T23:46:35.735Z,99.50
2016-10-26T23:51:32.175Z,99.60
2016-10-26T23:56:28.508Z,98.83
